createdAt,value
2022-10-13T00:00:47.634Z,6.60
2022-10-13T00:03:15.232Z,6.60
2022-10-13T00:05:49.823Z,6.60
2022-10-13T00:08:20.149Z,6.70
2022-10-13T00:10:49.340Z,6.70
2022-10-13T00:13:17.199Z,6.80
2022-10-13T00:15:46.080Z,6.70
2022-10-13T00:18:13.757Z,6.80
2022-10-13T00:20:46.383Z,6.80
2022-10-13T00:23:14.228Z,6.80
2022-10-13T00:25:45.677Z,6.80
2022-10-13T00:28:15.515Z,6.70
2022-10-13T00:30:42.607Z,6.70
2022-10-13T00:33:11.592Z,6.60
2022-10-13T00:35:44.002Z,6.60
2022-10-13T00:38:11.251Z,6.50
2022-10-13T00:40:55.792Z,6.60
2022-10-13T00:43:46.998Z,6.60
2022-10-13T00:46:14.920Z,6.60
2022-10-13T00:48:43.423Z,6.70
2022-10-13T00:51:12.499Z,6.80
2022-10-13T00:53:40.843Z,6.90
2022-10-13T00:56:10.825Z,7.00
2022-10-13T00:58:39.180Z,7.10
2022-10-13T01:01:06.892Z,7.10
2022-10-13T01:03:33.939Z,7.20
2022-10-13T01:06:03.538Z,7.20
2022-10-13T01:08:30.683Z,7.20
2022-10-13T01:11:23.067Z,7.30
2022-10-13T01:13:55.756Z,7.30
2022-10-13T01:16:41.871Z,7.30
2022-10-13T01:19:41.530Z,7.30
2022-10-13T01:22:45.157Z,7.30
2022-10-13T01:25:37.734Z,7.30
2022-10-13T01:28:21.889Z,7.30
2022-10-13T01:31:17.889Z,7.20
2022-10-13T01:33:57.451Z,7.20
2022-10-13T01:36:48.984Z,7.20
2022-10-13T01:39:26.106Z,7.20
2022-10-13T01:42:01.910Z,7.10
2022-10-13T01:44:37.662Z,7.20
2022-10-13T01:47:07.436Z,7.20
2022-10-13T01:49:35.862Z,7.20
2022-10-13T01:52:07.600Z,7.20
2022-10-13T01:54:34.453Z,7.30
2022-10-13T01:57:01.462Z,7.30
2022-10-13T01:59:32.732Z,7.30
2022-10-13T02:02:21.485Z,7.40
2022-10-13T02:05:10.546Z,7.40
2022-10-13T02:07:54.135Z,7.40
2022-10-13T02:10:23.712Z,7.40
2022-10-13T02:12:56.768Z,7.40
2022-10-13T02:15:30.967Z,7.40
2022-10-13T02:17:58.450Z,7.30
2022-10-13T02:20:25.006Z,7.30
2022-10-13T02:22:57.019Z,7.30
2022-10-13T02:25:24.852Z,7.30
2022-10-13T02:27:53.118Z,7.20
2022-10-13T02:30:22.537Z,7.10
2022-10-13T02:32:49.642Z,7.10
2022-10-13T02:35:16.679Z,7.00
2022-10-13T02:37:43.662Z,7.00
2022-10-13T02:40:11.475Z,6.90
2022-10-13T02:42:38.681Z,6.90
2022-10-13T02:45:06.543Z,6.80
2022-10-13T02:47:33.107Z,6.80
2022-10-13T02:50:00.052Z,6.70
2022-10-13T02:52:26.738Z,6.70
2022-10-13T02:54:53.443Z,6.60
2022-10-13T02:57:20.418Z,6.50
2022-10-13T02:59:47.370Z,6.50
2022-10-13T03:02:14.337Z,6.50
2022-10-13T03:04:40.854Z,6.40
2022-10-13T03:07:07.898Z,6.40
2022-10-13T03:09:34.842Z,6.40
2022-10-13T03:12:01.906Z,6.40
2022-10-13T03:14:28.462Z,6.40
2022-10-13T03:16:57.960Z,6.40
2022-10-13T03:19:24.567Z,6.30
2022-10-13T03:21:51.516Z,6.30
2022-10-13T03:24:18.179Z,6.30
2022-10-13T03:26:45.159Z,6.20
2022-10-13T03:29:15.275Z,6.20
2022-10-13T03:31:42.722Z,6.20
2022-10-13T03:34:11.196Z,6.20
2022-10-13T03:36:38.178Z,6.20
2022-10-13T03:39:05.393Z,6.10
2022-10-13T03:41:32.315Z,6.20
2022-10-13T03:43:59.263Z,6.20
2022-10-13T03:46:29.116Z,6.10
2022-10-13T03:48:56.158Z,6.10
2022-10-13T03:51:23.458Z,6.10
2022-10-13T03:53:52.240Z,6.10
2022-10-13T03:56:23.155Z,6.10
2022-10-13T03:58:54.420Z,6.00
2022-10-13T04:01:23.455Z,6.00
2022-10-13T04:03:52.600Z,6.00
2022-10-13T04:06:19.268Z,5.90
2022-10-13T04:08:46.254Z,6.00
2022-10-13T04:11:14.492Z,6.00
2022-10-13T04:13:42.426Z,6.00
2022-10-13T04:16:24.131Z,5.90
2022-10-13T04:18:54.188Z,5.90
2022-10-13T04:21:22.243Z,5.90
2022-10-13T04:23:48.904Z,6.00
2022-10-13T04:26:18.732Z,6.00
2022-10-13T04:28:47.305Z,6.00
2022-10-13T04:31:14.684Z,6.00
2022-10-13T04:33:41.982Z,6.00
2022-10-13T04:36:10.889Z,6.00
2022-10-13T04:38:37.896Z,6.00
2022-10-13T04:41:06.250Z,6.10
2022-10-13T04:43:33.975Z,6.00
2022-10-13T04:46:05.699Z,6.00
2022-10-13T04:48:33.071Z,6.00
2022-10-13T04:51:08.897Z,6.00
2022-10-13T04:53:36.415Z,6.00
2022-10-13T04:56:08.855Z,6.10
2022-10-13T04:58:37.326Z,6.10
2022-10-13T05:01:06.700Z,6.10
2022-10-13T05:03:34.960Z,6.10
2022-10-13T05:06:01.594Z,6.20
2022-10-13T05:08:28.680Z,6.20
2022-10-13T05:10:57.432Z,6.30
2022-10-13T05:13:25.375Z,6.30
2022-10-13T05:15:52.296Z,6.30
2022-10-13T05:18:19.248Z,6.40
2022-10-13T05:20:46.723Z,6.40
2022-10-13T05:23:14.839Z,6.40
2022-10-13T05:25:41.537Z,6.40
2022-10-13T05:28:09.225Z,6.50
2022-10-13T05:30:36.311Z,6.50
2022-10-13T05:33:03.065Z,6.50
2022-10-13T05:35:30.060Z,6.50
2022-10-13T05:37:57.041Z,6.40
2022-10-13T05:40:23.623Z,6.40
2022-10-13T05:42:51.538Z,6.40
2022-10-13T05:45:19.410Z,6.40
2022-10-13T05:47:46.394Z,6.40
2022-10-13T05:50:13.078Z,6.40
2022-10-13T05:52:40.460Z,6.40
2022-10-13T05:55:10.150Z,6.40
2022-10-13T05:57:41.442Z,6.40
2022-10-13T06:00:11.122Z,6.40
2022-10-13T06:02:44.273Z,6.50
2022-10-13T06:05:20.040Z,6.50
2022-10-13T06:07:48.067Z,6.50
2022-10-13T06:10:15.975Z,6.50
2022-10-13T06:12:43.048Z,6.60
2022-10-13T06:15:10.463Z,6.60
2022-10-13T06:17:38.276Z,6.70
2022-10-13T06:20:06.446Z,6.70
2022-10-13T06:22:34.805Z,6.80
2022-10-13T06:25:02.387Z,6.90
2022-10-13T06:27:29.207Z,7.00
2022-10-13T06:29:55.963Z,7.10
2022-10-13T06:32:22.903Z,7.30
2022-10-13T06:34:50.074Z,7.40
2022-10-13T06:37:17.053Z,7.60
2022-10-13T06:39:44.178Z,7.70
2022-10-13T06:42:11.158Z,7.90
2022-10-13T06:44:37.814Z,8.00
2022-10-13T06:47:05.398Z,8.10
2022-10-13T06:49:32.290Z,8.20
2022-10-13T06:51:59.056Z,8.30
2022-10-13T06:54:26.064Z,8.50
2022-10-13T06:56:52.670Z,8.60
2022-10-13T06:59:19.750Z,8.70
2022-10-13T07:01:48.028Z,8.90
2022-10-13T07:04:15.210Z,9.00
2022-10-13T07:06:42.175Z,9.10
2022-10-13T07:09:08.907Z,9.20
2022-10-13T07:11:36.221Z,9.30
2022-10-13T07:14:02.919Z,9.40
2022-10-13T07:16:29.973Z,9.60
2022-10-13T07:18:56.564Z,9.70
2022-10-13T07:21:23.517Z,9.90
2022-10-13T07:23:50.055Z,10.00
2022-10-13T07:26:17.422Z,10.20
2022-10-13T07:28:45.029Z,10.40
2022-10-13T07:31:15.759Z,10.50
2022-10-13T07:33:43.987Z,10.70
2022-10-13T07:36:11.526Z,10.90
2022-10-13T07:38:38.379Z,11.00
2022-10-13T07:41:07.835Z,11.20
2022-10-13T07:43:34.486Z,11.40
2022-10-13T07:46:05.012Z,11.50
2022-10-13T07:48:32.614Z,11.70
2022-10-13T07:50:59.211Z,11.80
2022-10-13T07:53:26.179Z,11.80
2022-10-13T07:55:52.818Z,11.90
2022-10-13T07:58:19.823Z,12.00
2022-10-13T08:00:55.052Z,12.10
2022-10-13T08:03:22.099Z,12.20
2022-10-13T08:05:48.622Z,12.30
2022-10-13T08:08:15.566Z,12.30
2022-10-13T08:10:42.575Z,12.40
2022-10-13T08:13:11.050Z,12.40
2022-10-13T08:15:45.070Z,12.50
2022-10-13T08:18:14.213Z,12.60
2022-10-13T08:20:46.140Z,12.60
2022-10-13T08:23:13.846Z,12.70
2022-10-13T08:25:42.339Z,12.80
2022-10-13T08:28:19.865Z,12.80
2022-10-13T08:30:46.898Z,12.90
2022-10-13T08:33:13.822Z,12.90
2022-10-13T08:35:42.307Z,12.90
2022-10-13T08:38:09.100Z,13.00
2022-10-13T08:40:37.040Z,13.00
2022-10-13T08:43:08.647Z,13.10
2022-10-13T08:45:41.474Z,13.20
2022-10-13T08:48:19.158Z,13.20
2022-10-13T08:50:50.943Z,13.30
2022-10-13T08:53:30.789Z,13.40
2022-10-13T08:56:05.148Z,13.40
2022-10-13T08:58:34.307Z,13.50
2022-10-13T09:01:10.131Z,13.60
2022-10-13T09:04:00.783Z,13.70
2022-10-13T09:06:33.263Z,13.70
2022-10-13T09:09:08.642Z,13.80
2022-10-13T09:11:37.896Z,13.90
2022-10-13T09:14:08.791Z,14.00
2022-10-13T09:16:40.797Z,14.10
2022-10-13T09:19:24.396Z,14.20
2022-10-13T09:21:57.589Z,14.30
2022-10-13T09:24:26.358Z,14.30
2022-10-13T09:27:07.814Z,14.40
2022-10-13T09:29:34.420Z,14.40
2022-10-13T09:32:10.619Z,14.50
2022-10-13T09:34:37.632Z,14.50
2022-10-13T09:37:06.574Z,14.60
2022-10-13T09:39:33.937Z,14.60
2022-10-13T09:42:26.206Z,14.60
2022-10-13T09:45:13.194Z,14.60
2022-10-13T09:47:40.380Z,14.60
2022-10-13T09:50:17.967Z,14.70
2022-10-13T09:52:48.760Z,14.70
2022-10-13T09:55:33.938Z,14.80
2022-10-13T09:58:14.051Z,14.80
2022-10-13T10:00:41.534Z,14.90
2022-10-13T10:03:19.857Z,15.00
2022-10-13T10:05:56.054Z,15.10
2022-10-13T10:09:03.804Z,15.20
2022-10-13T10:11:42.240Z,15.40
2022-10-13T10:14:28.750Z,15.60
2022-10-13T10:17:02.800Z,15.80
2022-10-13T10:20:00.376Z,15.80
2022-10-13T10:22:58.609Z,15.90
2022-10-13T10:25:40.313Z,16.00
2022-10-13T10:28:28.999Z,16.10
2022-10-13T10:31:06.826Z,16.10
2022-10-13T10:33:53.904Z,16.10
2022-10-13T10:36:46.800Z,16.10
2022-10-13T10:39:43.282Z,16.10
2022-10-13T10:42:48.439Z,16.10
2022-10-13T10:45:26.212Z,16.10
2022-10-13T10:48:01.318Z,16.00
2022-10-13T10:50:31.156Z,16.00
2022-10-13T10:53:31.587Z,16.00
2022-10-13T10:56:09.887Z,16.00
2022-10-13T10:58:49.539Z,16.00
2022-10-13T11:01:42.007Z,16.00
2022-10-13T11:04:46.230Z,15.90
2022-10-13T11:07:14.322Z,15.80
2022-10-13T11:09:40.956Z,15.80
2022-10-13T11:12:19.907Z,15.70
2022-10-13T11:15:02.091Z,15.70
2022-10-13T11:17:32.743Z,15.80
2022-10-13T11:20:00.684Z,15.90
2022-10-13T11:22:29.488Z,16.20
2022-10-13T11:25:02.372Z,16.50
2022-10-13T11:27:35.009Z,16.60
2022-10-13T11:30:02.511Z,16.70
2022-10-13T11:32:34.707Z,17.00
2022-10-13T11:35:10.211Z,16.90
2022-10-13T11:38:05.687Z,16.90
2022-10-13T11:40:54.244Z,16.80
2022-10-13T11:43:49.948Z,16.80
2022-10-13T11:46:49.828Z,16.70
2022-10-13T11:49:47.806Z,16.60
2022-10-13T11:52:36.424Z,16.50
2022-10-13T11:55:14.627Z,16.50
2022-10-13T11:57:41.195Z,16.40
2022-10-13T12:00:17.455Z,16.40
2022-10-13T12:02:52.633Z,16.30
2022-10-13T12:05:26.027Z,16.30
2022-10-13T12:07:55.468Z,16.30
2022-10-13T12:10:31.660Z,16.30
2022-10-13T12:12:59.040Z,16.20
2022-10-13T12:15:30.912Z,16.20
2022-10-13T12:17:57.935Z,16.20
2022-10-13T12:20:29.004Z,16.30
2022-10-13T12:22:56.789Z,16.30
2022-10-13T12:25:29.633Z,16.40
2022-10-13T12:27:59.366Z,16.50
2022-10-13T12:30:29.530Z,16.50
2022-10-13T12:32:59.631Z,16.60
2022-10-13T12:35:33.522Z,16.60
2022-10-13T12:38:07.199Z,16.70
2022-10-13T12:40:34.788Z,16.80
2022-10-13T12:43:03.957Z,16.90
2022-10-13T12:45:34.301Z,16.90
2022-10-13T12:48:00.889Z,17.00
2022-10-13T12:50:27.907Z,17.00
2022-10-13T12:53:18.614Z,17.10
2022-10-13T12:56:00.529Z,17.10
2022-10-13T12:58:34.113Z,17.10
2022-10-13T13:01:07.003Z,17.00
2022-10-13T13:03:36.075Z,17.00
2022-10-13T13:06:15.294Z,17.00
2022-10-13T13:08:43.166Z,17.10
2022-10-13T13:11:22.954Z,17.10
2022-10-13T13:13:49.575Z,17.20
2022-10-13T13:16:21.643Z,17.30
2022-10-13T13:18:50.334Z,17.30
2022-10-13T13:21:19.651Z,17.40
2022-10-13T13:23:52.718Z,17.40
2022-10-13T13:26:23.183Z,17.40
2022-10-13T13:28:51.254Z,17.40
2022-10-13T13:31:20.898Z,17.40
2022-10-13T13:33:48.279Z,17.50
2022-10-13T13:36:15.328Z,17.40
2022-10-13T13:38:41.953Z,17.30
2022-10-13T13:41:11.451Z,17.30
2022-10-13T13:43:39.219Z,17.20
2022-10-13T13:46:07.834Z,17.20
2022-10-13T13:48:34.396Z,17.10
2022-10-13T13:51:01.051Z,17.10
2022-10-13T13:53:28.039Z,17.00
2022-10-13T13:55:54.629Z,16.80
2022-10-13T13:58:21.681Z,16.70
2022-10-13T14:00:48.939Z,16.70
2022-10-13T14:03:19.238Z,16.60
2022-10-13T14:05:46.529Z,16.60
2022-10-13T14:08:13.066Z,16.60
2022-10-13T14:10:40.923Z,16.60
2022-10-13T14:13:07.509Z,16.50
2022-10-13T14:15:34.757Z,16.50
2022-10-13T14:18:01.319Z,16.40
2022-10-13T14:20:27.971Z,16.50
2022-10-13T14:22:54.635Z,16.40
2022-10-13T14:25:21.674Z,16.30
2022-10-13T14:27:48.681Z,16.20
2022-10-13T14:30:15.359Z,16.20
2022-10-13T14:32:42.184Z,16.10
2022-10-13T14:35:09.208Z,16.10
2022-10-13T14:37:36.506Z,16.10
2022-10-13T14:40:03.406Z,16.10
2022-10-13T14:42:30.437Z,16.00
2022-10-13T14:44:57.016Z,16.00
2022-10-13T14:47:24.068Z,16.00
2022-10-13T14:49:50.728Z,15.90
2022-10-13T14:52:17.283Z,15.90
2022-10-13T14:54:44.848Z,15.90
2022-10-13T14:57:15.660Z,15.90
2022-10-13T14:59:42.618Z,15.80
2022-10-13T15:02:10.878Z,15.80
2022-10-13T15:04:38.281Z,15.70
2022-10-13T15:07:05.234Z,15.70
2022-10-13T15:09:45.151Z,15.60
2022-10-13T15:12:19.431Z,15.60
2022-10-13T15:14:46.608Z,15.60
2022-10-13T15:17:13.554Z,15.50
2022-10-13T15:19:40.088Z,15.50
2022-10-13T15:22:06.614Z,15.50
2022-10-13T15:24:33.586Z,15.50
2022-10-13T15:27:00.126Z,15.50
2022-10-13T15:29:27.088Z,15.50
2022-10-13T15:32:08.311Z,15.50
2022-10-13T15:34:35.471Z,15.50
2022-10-13T15:37:02.020Z,15.50
2022-10-13T15:39:28.994Z,15.40
2022-10-13T15:41:56.684Z,15.40
2022-10-13T15:44:27.447Z,15.30
2022-10-13T15:47:07.576Z,15.20
2022-10-13T15:49:39.610Z,15.10
2022-10-13T15:52:06.827Z,15.00
2022-10-13T15:54:33.490Z,14.90
2022-10-13T15:57:00.612Z,14.80
2022-10-13T15:59:27.611Z,14.70
2022-10-13T16:01:54.151Z,14.20
2022-10-13T16:04:21.097Z,14.60
2022-10-13T16:06:48.063Z,14.50
2022-10-13T16:09:15.018Z,14.50
2022-10-13T16:11:41.983Z,14.50
2022-10-13T16:14:09.493Z,14.50
2022-10-13T16:16:37.491Z,14.50
2022-10-13T16:19:04.480Z,14.40
2022-10-13T16:21:31.070Z,14.40
2022-10-13T16:23:59.676Z,15.10
2022-10-13T16:26:26.364Z,14.30
2022-10-13T16:28:57.131Z,14.20
2022-10-13T16:31:24.167Z,14.10
2022-10-13T16:33:51.211Z,14.00
2022-10-13T16:36:20.462Z,14.00
2022-10-13T16:38:48.126Z,13.90
2022-10-13T16:41:17.297Z,13.90
2022-10-13T16:43:45.641Z,13.90
2022-10-13T16:46:15.391Z,13.80
2022-10-13T16:48:43.476Z,13.80
2022-10-13T16:51:14.085Z,13.80
2022-10-13T16:53:40.810Z,13.80
2022-10-13T16:56:08.588Z,13.80
2022-10-13T16:58:35.641Z,13.80
2022-10-13T17:01:09.741Z,13.70
2022-10-13T17:03:37.837Z,13.80
2022-10-13T17:06:05.947Z,13.70
2022-10-13T17:08:33.106Z,13.70
2022-10-13T17:11:00.370Z,13.60
2022-10-13T17:13:27.015Z,13.60
2022-10-13T17:15:56.062Z,13.50
2022-10-13T17:18:23.943Z,13.40
2022-10-13T17:20:55.486Z,13.40
2022-10-13T17:23:23.831Z,13.40
2022-10-13T17:25:51.535Z,13.30
2022-10-13T17:28:18.634Z,13.30
2022-10-13T17:30:45.682Z,13.20
2022-10-13T17:33:12.965Z,13.10
2022-10-13T17:35:39.485Z,13.00
2022-10-13T17:38:07.068Z,12.90
2022-10-13T17:40:35.778Z,12.80
2022-10-13T17:43:03.159Z,12.80
2022-10-13T17:45:30.868Z,12.70
2022-10-13T17:47:58.901Z,12.60
2022-10-13T17:50:26.234Z,12.60
2022-10-13T17:52:53.655Z,12.50
2022-10-13T17:55:20.174Z,12.40
2022-10-13T17:57:47.152Z,12.40
2022-10-13T18:00:14.336Z,12.30
2022-10-13T18:02:42.355Z,12.20
2022-10-13T18:05:09.054Z,12.10
2022-10-13T18:07:37.216Z,12.10
2022-10-13T18:10:05.373Z,12.10
2022-10-13T18:12:32.944Z,12.00
2022-10-13T18:14:59.789Z,12.00
2022-10-13T18:17:26.667Z,12.00
2022-10-13T18:19:54.107Z,12.00
2022-10-13T18:22:20.788Z,12.00
2022-10-13T18:24:47.961Z,12.00
2022-10-13T18:27:14.740Z,12.10
2022-10-13T18:29:43.230Z,12.10
2022-10-13T18:32:10.365Z,12.10
2022-10-13T18:34:36.959Z,12.10
2022-10-13T18:37:06.115Z,12.10
2022-10-13T18:39:34.420Z,12.00
2022-10-13T18:42:01.746Z,12.00
2022-10-13T18:44:28.472Z,12.00
2022-10-13T18:46:56.848Z,11.90
2022-10-13T18:49:30.676Z,11.80
2022-10-13T18:51:59.181Z,11.80
2022-10-13T18:54:26.749Z,11.70
2022-10-13T18:56:53.628Z,11.60
2022-10-13T18:59:20.882Z,11.60
2022-10-13T19:01:47.685Z,11.50
2022-10-13T19:04:16.514Z,11.40
2022-10-13T19:06:44.968Z,11.40
2022-10-13T19:09:14.063Z,11.40
2022-10-13T19:11:41.148Z,11.40
2022-10-13T19:14:11.722Z,11.40
2022-10-13T19:16:40.173Z,11.40
2022-10-13T19:19:10.398Z,11.40
2022-10-13T19:21:38.277Z,11.40
2022-10-13T19:24:05.178Z,11.40
2022-10-13T19:26:33.948Z,11.40
2022-10-13T19:29:13.774Z,11.40
2022-10-13T19:31:43.318Z,11.40
2022-10-13T19:34:11.724Z,11.40
2022-10-13T19:36:45.445Z,11.40
2022-10-13T19:39:21.371Z,11.40
2022-10-13T19:41:49.171Z,11.40
2022-10-13T19:44:18.172Z,11.30
2022-10-13T19:46:46.615Z,11.30
2022-10-13T19:49:16.387Z,11.20
2022-10-13T19:51:43.211Z,11.10
2022-10-13T19:54:11.021Z,11.00
2022-10-13T19:56:38.556Z,11.00
2022-10-13T19:59:05.631Z,10.90
2022-10-13T20:01:40.093Z,10.90
2022-10-13T20:04:10.635Z,10.90
2022-10-13T20:06:38.079Z,11.00
2022-10-13T20:09:05.589Z,11.00
2022-10-13T20:11:32.574Z,11.10
2022-10-13T20:13:59.150Z,11.10
2022-10-13T20:16:26.315Z,11.10
2022-10-13T20:18:59.084Z,11.20
2022-10-13T20:21:27.144Z,11.20
2022-10-13T20:23:54.348Z,11.20
2022-10-13T20:26:21.524Z,11.20
2022-10-13T20:28:50.125Z,11.20
2022-10-13T20:31:18.758Z,11.20
2022-10-13T20:33:46.884Z,11.20
2022-10-13T20:36:15.686Z,11.20
2022-10-13T20:38:42.728Z,11.20
2022-10-13T20:41:30.411Z,11.20
2022-10-13T20:43:59.265Z,11.20
2022-10-13T20:46:26.571Z,11.20
2022-10-13T20:49:11.970Z,11.20
2022-10-13T20:51:40.576Z,11.30
2022-10-13T20:54:08.163Z,11.30
2022-10-13T20:56:34.725Z,11.40
2022-10-13T20:59:07.378Z,11.40
2022-10-13T21:01:34.523Z,11.40
2022-10-13T21:04:01.463Z,11.40
2022-10-13T21:06:28.491Z,11.50
2022-10-13T21:08:55.695Z,11.50
2022-10-13T21:11:24.399Z,11.60
2022-10-13T21:13:52.512Z,11.60
2022-10-13T21:16:22.476Z,11.60
2022-10-13T21:18:51.724Z,11.60
2022-10-13T21:21:20.978Z,11.60
2022-10-13T21:23:59.003Z,11.60
2022-10-13T21:26:28.335Z,11.60
2022-10-13T21:28:55.879Z,11.70
2022-10-13T21:31:23.831Z,11.60
2022-10-13T21:33:51.062Z,11.60
2022-10-13T21:36:24.333Z,11.70
2022-10-13T21:38:54.349Z,11.70
2022-10-13T21:41:21.309Z,11.60
2022-10-13T21:43:49.233Z,11.70
2022-10-13T21:46:21.729Z,11.70
2022-10-13T21:48:48.729Z,11.70
2022-10-13T21:51:18.526Z,11.70
2022-10-13T21:53:53.994Z,11.70
2022-10-13T21:56:22.135Z,11.80
2022-10-13T21:58:49.463Z,11.80
2022-10-13T22:01:17.606Z,11.80
2022-10-13T22:03:44.861Z,11.90
2022-10-13T22:06:18.752Z,11.80
2022-10-13T22:08:47.558Z,11.80
2022-10-13T22:11:15.402Z,11.80
2022-10-13T22:13:42.351Z,11.90
2022-10-13T22:16:13.813Z,11.90
2022-10-13T22:18:41.345Z,12.00
2022-10-13T22:21:16.945Z,11.90
2022-10-13T22:23:45.124Z,11.90
2022-10-13T22:26:12.607Z,11.90
2022-10-13T22:28:40.021Z,11.90
2022-10-13T22:31:08.329Z,11.90
2022-10-13T22:33:37.379Z,11.90
2022-10-13T22:36:09.268Z,11.90
2022-10-13T22:38:36.329Z,11.90
2022-10-13T22:41:04.634Z,11.90
2022-10-13T22:43:31.732Z,11.90
2022-10-13T22:45:59.191Z,11.90
2022-10-13T22:48:25.761Z,11.90
2022-10-13T22:50:52.695Z,11.90
2022-10-13T22:53:19.994Z,11.80
2022-10-13T22:55:46.637Z,11.80
2022-10-13T22:58:13.612Z,11.80
2022-10-13T23:00:40.642Z,11.80
2022-10-13T23:03:07.693Z,11.70
2022-10-13T23:05:34.276Z,11.70
2022-10-13T23:08:01.256Z,11.70
2022-10-13T23:10:28.361Z,11.70
2022-10-13T23:12:55.290Z,11.70
2022-10-13T23:15:21.867Z,11.60
2022-10-13T23:17:48.804Z,11.60
2022-10-13T23:20:15.449Z,11.60
2022-10-13T23:22:42.471Z,11.60
2022-10-13T23:25:09.176Z,11.60
2022-10-13T23:27:35.704Z,11.60
2022-10-13T23:30:02.776Z,11.60
2022-10-13T23:32:29.315Z,11.60
2022-10-13T23:34:56.244Z,11.60
2022-10-13T23:37:23.573Z,11.60
2022-10-13T23:39:50.212Z,11.60
2022-10-13T23:42:17.141Z,11.60
2022-10-13T23:44:43.663Z,11.60
2022-10-13T23:47:10.613Z,11.60
2022-10-13T23:49:37.529Z,11.60
2022-10-13T23:52:09.983Z,11.60
2022-10-13T23:54:37.395Z,11.60
2022-10-13T23:57:04.408Z,11.60
2022-10-13T23:59:30.934Z,11.60
